Beef Island, British Virgin Islands

10:43 AM AST on April 21, 2015 (GMT -0400)
Beef I International | | Change Station
CLOSE
Current Station
Airport
Location: Beef Island,
Elevation: 13 ft
Nearby Weather Stations

Elev 13 ft 18.44 °N, 64.54 °W | Updated 43 minutes ago

Scattered Clouds
Scattered Clouds
82 °F
Feels Like 87 °F
N
12
Wind Variable Wind from ESE

Today
High -- | Low -- °F
--% Chance of Precip.
Yesterday
High -- | Low -- °F
Precip. -- in
5:57 AM 6:36 PM
Waxing Crescent, 11% visible
Pressure 30.09 in
Visibility 6.2 miles
Clouds Scattered Clouds 2000 ft
Heat Index 87 °F
Dew Point 72 °F
Humidity 70%
Rainfall 0.00 in
Snow Depth Not available.
UV 7 out of 12
Pollen Not available.
Air Quality Not available.
Flu Activity Not available.
METAR TUPJ 211400Z 11010KT 9999 SCT020 28/22 Q1019 RMK A3009

More Conditions Fewer Conditions

Pressure 30.09 in
Visibility 6.2 miles
Clouds Scattered Clouds 2000 ft
Heat Index 87 °F
Dew Point 72 °F
Humidity 70%
Rainfall 0.00 in
Snow Depth Not available.
UV 7 out of 12
Pollen Not available.
Air Quality Not available.
Flu Activity Not available.
METAR TUPJ 211400Z 11010KT 9999 SCT020 28/22 Q1019 RMK A3009

More Conditions Fewer Conditions

10-Day Weather Forecast

Almanac

Astronomy

Apr. 21, 2015 Rise Set
Actual Time
Civil Twilight
Nautical Twilight
Astronomical Twilight
Moon
Length of Visible Light
Length of Day
Tomorrow will be .
, % of the Moon is Illuminated

Today's Extremes

Country Highs Country Lows

Community

WunderPhotos

Upload Photos

1,815,413 photos uploaded!

WunderBlogs® & News

Nearby

Air Quality

  Air Quality AQ Index Pollutant
Not available.

Snow Depth

Station Depth Elevation

Earthquake Activity

City Distance Mag. Time & Date
Minimum magnitude displayed is 2.5.

Coastal Water Temperatures

Place Temperature

Stations

Nearby Weather Stations

Station Location Temp. Windchill Dew Point Humidity Wind Precip. Elev Updated Type